Time;durP1;ratioP1;P1;durP2;ratioP2;P2;SDS_P1;SDS_P2;PMS_P1;PMS_P2;Temp;Humidity;BMP_temperature;BMP_pressure;BME280_temperature;BME280_humidity;BME280_pressure;Samples;Min_cycle;Max_cycle;Signal;HPM_P1;HPM_P2
2021/05/12 00:01:17;;;;;;;1.73;1.63;;;;;;;12.01;53.78;98803.66;5113786;28;20045;-92
2021/05/12 00:03:43;;;;;;;5.43;2.40;;;;;;;11.99;53.92;98805.03;5112239;28;20027;-88
2021/05/12 00:06:09;;;;;;;2.67;2.20;;;;;;;11.95;53.85;98798.63;5112323;28;20126;-84
2021/05/12 00:09:01;;;;;;;4.13;2.45;;;;;;;11.92;54.07;98802.69;5113783;28;20054;-95
2021/05/12 00:11:28;;;;;;;6.60;2.47;;;;;;;11.85;54.18;98797.72;5109869;28;20032;-84
2021/05/12 00:13:54;;;;;;;2.30;1.50;;;;;;;11.76;54.45;98793.28;5111843;28;20448;-87
2021/05/12 00:16:19;;;;;;;2.25;1.75;;;;;;;11.62;55.31;98791.34;5111053;28;20057;-82
2021/05/12 00:18:46;;;;;;;3.95;2.38;;;;;;;11.53;54.36;98785.84;5111255;28;20019;-88
2021/05/12 00:21:22;;;;;;;2.17;1.77;;;;;;;11.48;54.18;98787.78;5112025;28;20043;-88
2021/05/12 00:23:57;;;;;;;3.28;1.48;;;;;;;11.38;53.35;98776.09;5078870;28;20502;-85
2021/05/12 00:26:23;;;;;;;1.88;1.75;;;;;;;11.36;53.49;98772.13;5111523;28;20046;-86
2021/05/12 00:28:48;;;;;;;2.30;1.73;;;;;;;11.33;53.53;98778.84;5110644;28;20796;-86
2021/05/12 00:31:14;;;;;;;2.05;1.60;;;;;;;11.27;53.16;98766.63;5111341;28;20024;-86
2021/05/12 00:33:39;;;;;;;5.65;1.63;;;;;;;11.27;53.87;98758.59;5110789;28;20044;-82
2021/05/12 00:36:05;;;;;;;2.30;1.55;;;;;;;11.30;54.14;98759.88;5112221;28;20093;-89
2021/05/12 00:38:31;;;;;;;9.27;2.38;;;;;;;11.31;54.25;98762.25;5111709;28;20050;-89
2021/05/12 00:40:56;;;;;;;2.70;1.92;;;;;;;11.32;55.46;98753.16;5111900;28;20042;-86
2021/05/12 00:43:22;;;;;;;4.47;2.28;;;;;;;11.34;55.65;98761.72;5111899;28;20028;-89
2021/05/12 00:45:48;;;;;;;3.20;1.80;;;;;;;11.37;55.62;98757.66;5111644;28;20023;-86
2021/05/12 00:48:14;;;;;;;1.63;1.52;;;;;;;11.38;55.66;98752.00;5110545;28;20466;-84
2021/05/12 00:50:39;;;;;;;2.88;1.92;;;;;;;11.38;55.39;98745.88;5110822;28;20039;-87
2021/05/12 00:53:05;;;;;;;3.28;1.58;;;;;;;11.37;54.74;98753.09;5111735;28;20030;-87
2021/05/12 00:55:31;;;;;;;2.00;1.90;;;;;;;11.35;54.98;98749.91;5110904;28;20088;-84
2021/05/12 00:57:56;;;;;;;2.97;1.98;;;;;;;11.33;54.76;98748.63;5112013;28;20026;-87
2021/05/12 01:00:24;;;;;;;5.20;1.98;;;;;;;11.29;54.79;98756.44;5110579;28;20483;-85
2021/05/12 01:02:51;;;;;;;3.92;2.00;;;;;;;11.24;54.67;98753.00;5092014;28;20475;-88
2021/05/12 01:05:33;;;;;;;2.87;1.83;;;;;;;11.18;55.11;98752.25;5108620;28;20031;-89
2021/05/12 01:07:58;;;;;;;5.57;2.25;;;;;;;11.09;55.29;98751.31;5098149;28;20648;-78
2021/05/12 01:10:47;;;;;;;2.85;2.15;;;;;;;10.99;55.43;98747.69;5112153;28;20026;-93
2021/05/12 01:13:15;;;;;;;6.63;2.38;;;;;;;10.94;55.08;98739.72;5097591;28;20057;-90
2021/05/12 01:15:42;;;;;;;4.97;2.42;;;;;;;10.90;55.46;98736.03;5077529;28;20114;-92
2021/05/12 01:18:12;;;;;;;3.08;1.83;;;;;;;10.83;55.68;98732.91;5110227;28;20019;-86
2021/05/12 01:21:00;;;;;;;3.38;1.60;;;;;;;10.72;55.76;98734.88;5110222;28;20019;-87
2021/05/12 01:23:27;;;;;;;;;;;;;;;10.67;55.49;98742.97;5103384;28;20027;-86
2021/05/12 01:25:54;;;;;;;2.58;1.90;;;;;;;10.61;55.72;98744.88;5108860;28;19914;-86
2021/05/12 01:28:22;;;;;;;4.13;1.95;;;;;;;10.56;56.34;98743.06;5109909;28;20031;-88
2021/05/12 01:30:58;;;;;;;4.18;2.30;;;;;;;10.46;56.13;98743.19;5110018;28;20034;-85
2021/05/12 01:33:25;;;;;;;1.88;1.60;;;;;;;10.41;56.20;98741.34;5109638;28;20047;-87
2021/05/12 01:35:51;;;;;;;2.90;1.92;;;;;;;10.35;56.69;98745.13;5110007;28;20019;-88
2021/05/12 01:38:17;;;;;;;2.67;1.92;;;;;;;10.29;56.63;98738.22;5110938;28;20393;-91
2021/05/12 01:40:43;;;;;;;1.90;1.45;;;;;;;10.24;56.67;98728.38;5112060;28;20462;-86
2021/05/12 01:43:08;;;;;;;2.42;1.77;;;;;;;10.20;56.81;98723.88;5109680;28;20115;-86
2021/05/12 01:45:34;;;;;;;4.60;2.05;;;;;;;10.18;56.61;98726.81;5110861;28;20059;-92
2021/05/12 01:48:05;;;;;;;4.18;2.05;;;;;;;10.14;57.12;98715.09;5110212;28;20375;-94
2021/05/12 01:50:30;;;;;;;1.85;1.70;;;;;;;10.14;56.82;98716.97;5111816;28;20027;-93
2021/05/12 01:52:56;;;;;;;1.67;1.42;;;;;;;10.08;56.91;98703.66;5109750;28;20026;-87
2021/05/12 01:55:21;;;;;;;2.30;1.65;;;;;;;10.06;57.10;98708.47;5109683;28;20035;-86
2021/05/12 01:57:47;;;;;;;2.45;2.22;;;;;;;10.02;57.18;98706.66;5110198;28;20027;-86
2021/05/12 02:00:35;;;;;;;2.60;2.00;;;;;;;9.96;57.28;98707.75;5110428;28;20032;-89
2021/05/12 02:03:04;;;;;;;2.85;2.17;;;;;;;9.90;57.88;98691.78;5093008;28;20024;-89
2021/05/12 02:05:30;;;;;;;3.67;1.60;;;;;;;9.78;58.42;98694.03;5109870;28;20425;-89
2021/05/12 02:10:44;;;;;;;3.08;1.40;;;;;;;9.68;58.97;98684.22;5106136;28;20039;-92
2021/05/12 02:13:11;;;;;;;2.88;1.77;;;;;;;9.70;58.94;98683.94;5108928;28;20026;-91
2021/05/12 02:15:37;;;;;;;5.32;1.98;;;;;;;9.70;58.75;98686.59;5109557;28;20438;-90
2021/05/12 02:18:03;;;;;;;3.58;1.70;;;;;;;9.66;59.01;98683.69;5109689;28;20160;-91
2021/05/12 02:20:32;;;;;;;2.75;1.80;;;;;;;9.71;58.92;98688.22;5110059;28;20379;-90
2021/05/12 02:23:00;;;;;;;2.70;1.63;;;;;;;9.74;58.83;98691.13;5108157;28;20080;-90
2021/05/12 02:25:26;;;;;;;7.45;1.77;;;;;;;9.76;58.94;98677.47;5110039;28;20031;-92
2021/05/12 02:27:52;;;;;;;2.25;1.98;;;;;;;9.77;58.95;98679.84;5110383;28;20040;-90
2021/05/12 02:30:20;;;;;;;2.95;1.70;;;;;;;9.77;58.89;98679.06;5093558;28;20027;-90
2021/05/12 02:32:50;;;;;;;3.72;2.25;;;;;;;9.82;59.10;98683.59;5110978;28;20092;-91
2021/05/12 02:35:32;;;;;;;2.75;1.77;;;;;;;9.84;58.97;98687.56;5111378;28;20020;-94
2021/05/12 02:37:58;;;;;;;4.35;2.08;;;;;;;9.85;59.15;98691.03;5112988;28;20034;-86
2021/05/12 02:40:23;;;;;;;2.00;1.90;;;;;;;9.85;59.27;98680.34;5114483;28;20091;-86
2021/05/12 02:42:51;;;;;;;4.78;1.90;;;;;;;9.87;59.25;98678.97;5126495;28;20225;-91
2021/05/12 02:45:17;;;;;;;4.43;2.13;;;;;;;9.87;58.43;98678.19;5128216;28;20108;-84
2021/05/12 02:47:57;;;;;;;4.88;2.55;;;;;;;9.87;58.08;98678.97;5122152;28;20028;-85
2021/05/12 02:50:28;;;;;;;3.72;1.95;;;;;;;9.88;57.97;98683.25;5119838;28;20032;-83
2021/05/12 02:52:55;;;;;;;2.65;1.95;;;;;;;9.84;57.68;98676.88;5118661;28;20390;-89
2021/05/12 02:55:21;;;;;;;2.50;1.85;;;;;;;9.81;56.94;98685.44;5118564;28;20027;-84
2021/05/12 02:57:47;;;;;;;4.45;2.17;;;;;;;9.73;57.13;98683.38;5116612;28;20047;-88
2021/05/12 03:00:16;;;;;;;5.35;2.72;;;;;;;9.64;57.29;98685.84;5118187;28;20024;-89
2021/05/12 03:02:42;;;;;;;5.82;2.67;;;;;;;9.56;57.28;98689.91;5117156;27;20024;-84
2021/05/12 03:05:13;;;;;;;4.75;2.17;;;;;;;9.49;57.43;98686.75;5117785;28;20546;-88
2021/05/12 03:07:41;;;;;;;5.03;2.58;;;;;;;9.43;56.90;98682.53;5113981;28;20038;-86
2021/05/12 03:10:10;;;;;;;6.82;2.47;;;;;;;9.38;57.20;98687.91;5079714;28;20027;-85
2021/05/12 03:12:41;;;;;;;3.67;2.13;;;;;;;9.34;57.48;98674.31;5117204;28;20043;-93
2021/05/12 03:15:40;;;;;;;5.45;2.35;;;;;;;9.45;57.60;98680.38;5104922;28;20043;-90
2021/05/12 03:18:27;;;;;;;9.02;5.10;;;;;;;9.65;57.38;98673.31;5113599;28;20038;-91
2021/05/12 03:21:01;;;;;;;6.80;3.30;;;;;;;9.98;56.70;98686.94;5103194;28;20027;-93
2021/05/12 03:24:32;;;;;;;3.97;2.45;;;;;;;10.50;55.66;98673.91;5098913;28;20033;-94
2021/05/12 03:27:53;;;;;;;12.63;6.93;;;;;;;11.14;54.14;98665.63;5115225;28;20034;-95
2021/05/12 03:30:28;;;;;;;8.13;2.83;;;;;;;11.62;52.80;98672.66;5095395;28;20073;-94
2021/05/12 03:32:56;;;;;;;4.75;2.47;;;;;;;12.11;51.88;98671.38;5078724;28;20122;-88
2021/05/12 03:35:22;;;;;;;6.60;2.22;;;;;;;12.63;50.17;98667.72;5092716;28;20463;-90
2021/05/12 03:37:48;;;;;;;6.05;2.45;;;;;;;13.13;48.71;98658.91;5096167;28;20092;-89
2021/05/12 03:40:14;;;;;;;3.25;2.25;;;;;;;13.61;47.52;98665.66;5114615;28;20428;-91
2021/05/12 03:42:40;;;;;;;5.43;3.25;;;;;;;14.13;46.80;98665.16;5115537;28;20043;-90
2021/05/12 03:45:07;;;;;;;4.85;2.28;;;;;;;14.66;45.67;98655.44;5115362;28;20466;-89
2021/05/12 03:47:33;;;;;;;4.82;2.50;;;;;;;15.19;44.41;98659.00;5112561;28;20026;-90
2021/05/12 03:49:58;;;;;;;5.38;2.72;;;;;;;15.71;43.25;98652.03;5112916;28;20024;-89
2021/05/12 03:52:24;;;;;;;6.03;2.70;;;;;;;16.20;42.16;98650.97;5114189;28;20386;-91
2021/05/12 03:54:50;;;;;;;7.65;2.80;;;;;;;16.70;41.16;98658.38;5118221;28;20027;-90
2021/05/12 03:57:17;;;;;;;9.20;4.10;;;;;;;17.18;39.82;98653.66;5105160;28;20030;-87
2021/05/12 03:59:42;;;;;;;4.97;3.22;;;;;;;17.65;38.49;98643.72;5124990;28;20049;-87
2021/05/12 04:02:08;;;;;;;8.10;2.30;;;;;;;18.10;37.90;98653.00;5121000;28;20019;-80
2021/05/12 04:04:34;;;;;;;7.45;3.13;;;;;;;18.50;36.91;98642.31;5117391;28;20466;-84
2021/05/12 04:06:59;;;;;;;6.72;3.10;;;;;;;18.93;35.84;98639.38;5111590;28;20030;-83
2021/05/12 04:09:25;;;;;;;3.13;2.40;;;;;;;19.32;35.26;98637.00;5111241;28;20042;-84
2021/05/12 04:11:50;;;;;;;3.35;2.63;;;;;;;19.61;34.83;98638.59;5111088;28;20107;-83
2021/05/12 04:14:16;;;;;;;2.92;2.40;;;;;;;19.92;34.15;98633.59;5112216;28;20019;-82
2021/05/12 04:16:41;;;;;;;3.35;2.60;;;;;;;20.22;33.77;98633.97;5111288;28;20091;-82
2021/05/12 04:19:07;;;;;;;8.05;3.08;;;;;;;20.53;33.23;98637.81;5111859;28;20136;-84
2021/05/12 04:21:33;;;;;;;5.03;2.33;;;;;;;20.89;32.98;98632.41;5111238;28;20031;-84
2021/05/12 04:23:58;;;;;;;5.85;2.92;;;;;;;21.25;32.22;98641.31;5110866;28;20152;-79
2021/05/12 04:26:24;;;;;;;3.38;2.45;;;;;;;21.54;31.58;98639.94;5110550;28;20057;-77
2021/05/12 04:28:49;;;;;;;4.75;3.10;;;;;;;21.80;31.49;98648.59;5111007;28;20023;-77
2021/05/12 04:31:14;;;;;;;3.65;2.63;;;;;;;22.15;30.91;98637.56;5112031;28;20398;-77
2021/05/12 04:33:40;;;;;;;4.70;2.75;;;;;;;22.45;30.52;98638.81;5112031;28;20382;-74
2021/05/12 04:36:06;;;;;;;6.95;2.17;;;;;;;22.75;30.07;98636.16;5111125;28;20023;-75
2021/05/12 04:38:31;;;;;;;5.03;2.67;;;;;;;22.94;29.62;98629.81;5112530;28;20208;-78
2021/05/12 04:40:58;;;;;;;5.63;2.40;;;;;;;23.05;29.25;98626.44;5112292;28;20027;-75
2021/05/12 04:43:25;;;;;;;5.18;2.45;;;;;;;23.27;29.21;98638.44;5112390;28;20016;-75
2021/05/12 04:45:51;;;;;;;6.55;2.83;;;;;;;23.52;28.79;98624.28;5111884;28;20019;-75
2021/05/12 04:48:16;;;;;;;5.13;2.65;;;;;;;23.76;28.42;98636.63;5112080;28;20103;-75
2021/05/12 04:50:42;;;;;;;4.15;2.20;;;;;;;24.03;28.08;98623.63;5112106;28;20531;-77
2021/05/12 04:53:07;;;;;;;3.92;3.35;;;;;;;24.19;27.79;98623.38;5110750;28;20020;-75
2021/05/12 04:55:32;;;;;;;4.57;2.72;;;;;;;24.41;27.83;98620.81;5112178;28;20057;-75
2021/05/12 04:57:59;;;;;;;3.80;2.35;;;;;;;24.56;27.67;98611.56;5111600;28;20023;-75
2021/05/12 05:00:25;;;;;;;5.65;2.53;;;;;;;24.72;27.08;98618.72;5111086;28;20043;-75
2021/05/12 05:02:50;;;;;;;4.22;2.75;;;;;;;24.90;27.35;98625.06;5110746;28;20059;-74
2021/05/12 05:05:17;;;;;;;5.03;2.78;;;;;;;25.02;26.70;98614.94;5112119;28;20055;-75
2021/05/12 05:07:46;;;;;;;4.75;2.95;;;;;;;25.19;26.50;98624.41;5112069;28;20024;-77
2021/05/12 05:10:14;;;;;;;6.07;3.22;;;;;;;25.14;26.85;98619.31;5111830;28;20019;-75
2021/05/12 05:12:39;;;;;;;6.80;3.00;;;;;;;25.30;26.63;98621.72;5112104;28;20054;-77
2021/05/12 05:15:05;;;;;;;5.18;2.88;;;;;;;25.43;26.24;98614.75;5111793;28;20067;-76
2021/05/12 05:17:31;;;;;;;5.78;2.90;;;;;;;25.60;26.07;98615.97;5110691;28;20024;-76
2021/05/12 05:19:58;;;;;;;5.68;2.67;;;;;;;25.71;25.68;98621.47;5111688;28;20530;-76
2021/05/12 05:22:25;;;;;;;5.78;3.50;;;;;;;25.82;26.12;98611.31;5111981;28;20102;-76
2021/05/12 05:24:51;;;;;;;4.25;3.53;;;;;;;25.95;25.71;98606.25;5111768;28;20023;-77
2021/05/12 05:27:17;;;;;;;7.47;2.67;;;;;;;26.05;25.49;98608.19;5111821;28;20051;-76
2021/05/12 05:29:42;;;;;;;15.07;3.63;;;;;;;26.14;25.38;98599.59;5111496;28;20047;-76
2021/05/12 05:32:08;;;;;;;2.97;2.58;;;;;;;26.00;25.35;98605.03;5110926;28;20046;-76
2021/05/12 05:34:33;;;;;;;4.38;1.70;;;;;;;26.03;25.10;98601.53;5111725;28;20461;-76
2021/05/12 05:36:58;;;;;;;3.75;2.13;;;;;;;26.08;25.00;98600.41;5111482;28;20019;-76
2021/05/12 05:39:24;;;;;;;3.72;2.42;;;;;;;26.01;25.21;98587.44;5111614;28;20076;-76
2021/05/12 05:41:54;;;;;;;4.38;2.55;;;;;;;25.97;25.51;98589.41;5111732;28;20023;-77
2021/05/12 05:44:20;;;;;;;4.28;1.92;;;;;;;25.99;25.66;98593.31;5111455;28;20501;-76
2021/05/12 05:46:46;;;;;;;5.35;2.47;;;;;;;26.08;24.89;98603.13;5110287;28;20387;-77
2021/05/12 05:49:12;;;;;;;3.88;2.00;;;;;;;25.95;24.87;98598.03;5110290;28;20051;-76
2021/05/12 05:51:37;;;;;;;3.88;2.45;;;;;;;25.86;24.78;98594.88;5111627;28;20382;-76
2021/05/12 05:54:03;;;;;;;3.70;2.63;;;;;;;25.70;25.45;98590.53;5111010;28;20019;-76
2021/05/12 05:56:28;;;;;;;4.07;3.13;;;;;;;25.79;25.88;98592.13;5111685;28;20106;-76
2021/05/12 05:58:54;;;;;;;6.00;2.80;;;;;;;25.78;25.61;98599.56;5110791;28;20031;-76
2021/05/12 06:01:19;;;;;;;4.13;3.28;;;;;;;25.72;25.35;98593.69;5111292;28;20110;-76
2021/05/12 06:03:45;;;;;;;5.88;2.90;;;;;;;25.73;24.96;98592.50;5111204;28;20012;-77
2021/05/12 06:06:10;;;;;;;3.85;3.20;;;;;;;25.62;25.35;98585.44;5111012;28;20031;-77
2021/05/12 06:08:35;;;;;;;4.70;3.17;;;;;;;25.55;25.85;98581.53;5111765;28;20020;-76
2021/05/12 06:11:01;;;;;;;6.55;3.63;;;;;;;25.50;25.80;98590.13;5110917;28;20059;-77
2021/05/12 06:13:26;;;;;;;5.25;3.10;;;;;;;25.37;25.35;98583.41;5115284;27;20102;-76
2021/05/12 06:15:52;;;;;;;6.45;4.13;;;;;;;25.22;25.75;98585.34;5115035;28;20028;-76
2021/05/12 06:18:17;;;;;;;5.00;3.15;;;;;;;24.98;26.06;98586.81;5115417;28;20020;-77
2021/05/12 06:20:43;;;;;;;5.38;2.83;;;;;;;24.79;26.31;98585.91;5115548;28;20374;-77
2021/05/12 06:23:08;;;;;;;3.85;2.55;;;;;;;24.72;26.37;98585.91;5114743;28;20448;-77
2021/05/12 06:25:33;;;;;;;5.63;2.50;;;;;;;24.51;26.40;98581.06;5115298;28;20077;-76
2021/05/12 06:27:59;;;;;;;5.15;3.17;;;;;;;24.16;26.86;98577.72;5115076;28;20031;-77
2021/05/12 06:30:24;;;;;;;4.82;2.35;;;;;;;23.81;27.10;98585.22;5113843;28;20023;-77
2021/05/12 06:32:54;;;;;;;3.85;2.25;;;;;;;23.58;27.69;98579.13;5114992;28;20112;-77
2021/05/12 06:35:20;;;;;;;3.83;2.28;;;;;;;23.34;28.28;98575.78;5114846;28;20027;-77
2021/05/12 06:37:46;;;;;;;2.05;1.77;;;;;;;23.10;28.35;98577.03;5114750;28;20111;-76
2021/05/12 06:40:13;;;;;;;4.93;2.55;;;;;;;22.89;28.30;98580.25;5114936;28;20026;-76
2021/05/12 06:42:39;;;;;;;2.50;1.60;;;;;;;22.53;28.81;98578.66;5115145;28;20027;-77
2021/05/12 06:45:05;;;;;;;1.67;1.58;;;;;;;22.38;28.62;98574.13;5114874;28;20435;-76
2021/05/12 06:47:31;;;;;;;2.95;1.77;;;;;;;22.12;28.80;98570.22;5114659;28;20026;-76
2021/05/12 06:49:56;;;;;;;2.05;1.60;;;;;;;21.90;29.94;98572.59;5114658;28;20016;-76
2021/05/12 06:52:21;;;;;;;7.10;3.00;;;;;;;21.55;30.69;98561.84;5113257;28;20173;-76
2021/05/12 06:54:47;;;;;;;1.95;1.40;;;;;;;21.07;31.54;98565.63;5114940;28;20018;-77
2021/05/12 06:57:12;;;;;;;3.67;1.60;;;;;;;20.58;31.65;98560.66;5113121;28;20485;-76
2021/05/12 06:59:38;;;;;;;1.75;1.20;;;;;;;20.21;31.86;98558.31;5114794;28;20016;-77
2021/05/12 07:02:03;;;;;;;2.08;1.80;;;;;;;19.93;33.05;98554.56;5114559;28;20019;-76
2021/05/12 07:04:29;;;;;;;3.05;1.77;;;;;;;19.78;32.90;98563.44;5113366;28;20020;-77
2021/05/12 07:06:54;;;;;;;3.40;1.80;;;;;;;19.48;33.27;98561.13;5113071;28;20118;-76
2021/05/12 07:09:20;;;;;;;2.90;1.70;;;;;;;19.23;33.51;98549.63;5114804;28;20094;-77
2021/05/12 07:11:45;;;;;;;2.03;1.40;;;;;;;19.15;33.63;98554.06;5114337;28;20379;-77
2021/05/12 07:14:10;;;;;;;1.63;1.42;;;;;;;19.12;33.85;98549.34;5114195;28;20020;-76
2021/05/12 07:16:36;;;;;;;2.47;1.13;;;;;;;19.02;33.36;98545.19;5113078;28;20115;-76
2021/05/12 07:19:01;;;;;;;3.42;1.60;;;;;;;18.99;34.15;98543.16;5114143;28;20406;-77
2021/05/12 07:21:27;;;;;;;2.92;1.50;;;;;;;18.95;34.11;98537.66;5114036;28;20027;-77
2021/05/12 07:23:52;;;;;;;1.90;1.70;;;;;;;18.88;33.15;98535.50;5112953;28;20026;-77
2021/05/12 07:26:18;;;;;;;5.72;1.85;;;;;;;18.95;33.87;98537.66;5114233;28;20027;-77
2021/05/12 07:28:45;;;;;;;1.52;1.42;;;;;;;18.98;32.92;98538.88;5114552;28;20043;-76
2021/05/12 07:31:11;;;;;;;2.08;1.50;;;;;;;18.99;32.86;98535.03;5114180;28;20020;-76
2021/05/12 07:33:37;;;;;;;3.38;1.65;;;;;;;19.03;33.20;98542.13;5113593;28;20085;-77
2021/05/12 07:36:03;;;;;;;3.42;1.45;;;;;;;19.15;33.24;98552.16;5114120;28;20024;-76
2021/05/12 07:38:28;;;;;;;2.08;1.45;;;;;;;19.20;33.18;98543.75;5113568;28;20470;-76
2021/05/12 07:40:54;;;;;;;2.50;1.15;;;;;;;19.17;31.96;98541.72;5113484;28;20024;-76
2021/05/12 07:43:20;;;;;;;2.53;1.42;;;;;;;19.14;31.40;98537.00;5113909;28;20051;-76
2021/05/12 07:45:45;;;;;;;3.45;1.00;;;;;;;19.15;28.91;98535.88;5114189;28;20058;-76
2021/05/12 07:48:12;;;;;;;2.50;1.50;;;;;;;19.22;31.10;98542.63;5113695;28;20024;-76
2021/05/12 07:50:38;;;;;;;6.32;1.65;;;;;;;19.17;30.62;98530.13;5112522;28;20371;-76
2021/05/12 07:53:06;;;;;;;2.85;1.55;;;;;;;19.08;31.44;98526.75;5113544;28;20024;-76
2021/05/12 07:55:32;;;;;;;2.22;1.63;;;;;;;19.08;31.90;98505.88;5113983;28;20026;-77
2021/05/12 07:57:58;;;;;;;2.30;1.83;;;;;;;19.14;31.88;98517.25;5111810;28;20435;-77
2021/05/12 08:00:23;;;;;;;2.78;1.40;;;;;;;19.16;30.22;98506.84;5113593;28;20108;-77
2021/05/12 08:02:49;;;;;;;1.58;1.40;;;;;;;19.15;30.93;98508.78;5113294;28;20035;-76
2021/05/12 08:05:15;;;;;;;2.03;1.23;;;;;;;19.15;29.72;98514.22;5111936;28;20027;-77
2021/05/12 08:07:41;;;;;;;1.08;0.93;;;;;;;19.14;30.20;98512.63;5113139;28;20023;-77
2021/05/12 08:10:07;;;;;;;2.38;1.55;;;;;;;19.14;30.34;98506.41;5112794;28;20073;-76
2021/05/12 08:12:33;;;;;;;1.58;1.45;;;;;;;19.22;29.07;98499.25;5112983;28;20032;-77
2021/05/12 08:14:59;;;;;;;2.90;1.02;;;;;;;19.29;29.20;98500.22;5112612;28;20031;-77
2021/05/12 08:17:24;;;;;;;0.93;0.90;;;;;;;19.36;29.15;98491.50;5113175;28;20019;-76
2021/05/12 08:19:50;;;;;;;1.63;1.35;;;;;;;19.40;29.97;98495.09;5113010;28;20015;-77
2021/05/12 08:22:16;;;;;;;1.50;1.25;;;;;;;19.42;30.34;98492.03;5111621;28;20020;-77
2021/05/12 08:24:41;;;;;;;3.13;1.48;;;;;;;19.37;30.23;98482.22;5113100;28;20103;-77
2021/05/12 08:27:07;;;;;;;1.70;1.40;;;;;;;19.31;30.46;98479.00;5112780;28;20026;-76
2021/05/12 08:29:36;;;;;;;2.17;1.38;;;;;;;19.34;31.15;98470.16;5113284;28;20066;-77
2021/05/12 08:32:04;;;;;;;1.33;1.10;;;;;;;19.43;31.84;98463.78;5112244;28;20058;-77
2021/05/12 08:34:30;;;;;;;1.40;0.77;;;;;;;19.54;30.73;98464.03;5112673;28;20034;-77
2021/05/12 08:36:56;;;;;;;2.78;1.15;;;;;;;19.49;30.50;98454.22;5112576;28;20575;-77
2021/05/12 08:39:22;;;;;;;3.05;0.82;;;;;;;19.51;30.54;98455.47;5111105;28;20047;-77
2021/05/12 08:41:50;;;;;;;0.70;0.70;;;;;;;19.62;30.84;98454.94;5111446;28;20015;-77
2021/05/12 08:44:16;;;;;;;0.82;0.73;;;;;;;19.68;30.91;98454.31;5112282;28;20051;-76
2021/05/12 08:46:43;;;;;;;1.35;0.80;;;;;;;19.75;30.41;98461.03;5112441;28;20028;-77
2021/05/12 08:49:08;;;;;;;2.13;1.50;;;;;;;19.79;30.64;98451.09;5112720;28;20027;-77
2021/05/12 08:51:36;;;;;;;0.70;0.70;;;;;;;19.85;30.42;98452.41;5112479;28;20019;-77
2021/05/12 08:54:01;;;;;;;0.52;0.52;;;;;;;19.93;30.41;98464.22;5112461;28;20023;-77
2021/05/12 08:56:27;;;;;;;1.05;0.85;;;;;;;19.84;30.12;98448.13;5111203;28;20030;-77
2021/05/12 08:58:52;;;;;;;2.83;1.10;;;;;;;19.78;31.02;98442.13;5112420;28;20026;-76
2021/05/12 09:01:19;;;;;;;0.70;0.70;;;;;;;19.70;31.01;98436.91;5110888;28;20023;-77
2021/05/12 09:03:44;;;;;;;1.92;1.00;;;;;;;19.72;30.93;98434.63;5111919;28;20020;-76
2021/05/12 09:06:10;;;;;;;1.33;1.10;;;;;;;19.73;31.42;98433.50;5111814;28;20494;-76
2021/05/12 09:08:36;;;;;;;1.95;1.05;;;;;;;19.72;31.95;98440.06;5112214;28;20028;-77
2021/05/12 09:11:02;;;;;;;1.70;1.20;;;;;;;19.77;32.16;98442.50;5111733;28;20035;-76
2021/05/12 09:13:37;;;;;;;1.38;1.10;;;;;;;19.84;32.51;98434.56;5112227;28;20028;-75
2021/05/12 09:16:25;;;;;;;2.95;1.13;;;;;;;19.93;32.25;98443.31;5111875;28;20080;-76
2021/05/12 09:19:11;;;;;;;0.98;0.70;;;;;;;19.91;32.24;98436.63;5111719;28;20041;-76
2021/05/12 09:21:45;;;;;;;1.20;0.80;;;;;;;19.91;33.72;98429.28;5111789;28;20447;-77
2021/05/12 09:24:28;;;;;;;3.67;1.50;;;;;;;19.99;32.17;98443.81;5111617;27;20506;-77
2021/05/12 09:26:57;;;;;;;0.82;0.82;;;;;;;19.98;32.14;98429.47;5110687;28;20427;-77
2021/05/12 09:29:28;;;;;;;1.30;1.10;;;;;;;20.09;32.24;98420.75;5111503;28;20077;-77
2021/05/12 09:32:14;;;;;;;1.05;1.00;;;;;;;20.08;31.92;98436.25;5110454;28;20023;-76
2021/05/12 09:35:00;;;;;;;1.73;1.10;;;;;;;20.06;32.66;98416.81;5111925;28;20025;-77
2021/05/12 09:37:30;;;;;;;1.90;0.95;;;;;;;20.10;32.96;98406.84;5111874;28;20026;-77
2021/05/12 09:39:59;;;;;;;1.00;0.90;;;;;;;20.17;32.07;98413.56;5111640;28;20024;-77
2021/05/12 09:42:25;;;;;;;0.85;0.85;;;;;;;20.12;32.10;98393.69;5111817;28;20039;-77
2021/05/12 09:45:25;;;;;;;1.58;1.05;;;;;;;20.17;31.20;98400.75;5111476;28;20387;-76
2021/05/12 09:47:53;;;;;;;1.00;0.55;;;;;;;20.17;31.15;98398.06;5109943;28;20019;-77
2021/05/12 09:50:22;;;;;;;;;;;;;;;20.19;31.05;98398.50;5111634;28;20062;-77
2021/05/12 09:52:52;;;;;;;0.57;0.57;;;;;;;20.10;29.78;98385.13;5111730;28;19994;-76
2021/05/12 09:55:18;;;;;;;1.58;0.90;;;;;;;20.10;30.95;98373.47;5111597;28;20376;-76
2021/05/12 09:58:09;;;;;;;1.60;1.40;;;;;;;20.18;30.90;98371.69;5111358;28;20026;-75
2021/05/12 10:00:39;;;;;;;1.02;0.65;;;;;;;20.25;31.12;98352.81;5111737;28;20023;-76
2021/05/12 10:03:06;;;;;;;2.40;0.88;;;;;;;20.35;30.58;98354.19;5111095;28;20435;-76
2021/05/12 10:05:53;;;;;;;3.80;0.90;;;;;;;20.44;30.76;98354.75;5111403;28;20020;-76
2021/05/12 10:08:33;;;;;;;2.00;1.02;;;;;;;20.45;30.54;98351.66;5111144;28;20389;-76
2021/05/12 10:11:04;;;;;;;0.70;0.70;;;;;;;20.49;31.56;98343.59;5111516;28;20047;-76
2021/05/12 10:13:31;;;;;;;2.30;1.40;;;;;;;20.53;31.61;98341.75;5111429;28;20028;-77
2021/05/12 10:15:57;;;;;;;1.08;0.90;;;;;;;20.62;31.69;98341.50;5111393;28;20118;-77
2021/05/12 10:18:23;;;;;;;0.80;0.65;;;;;;;20.69;31.82;98338.94;5111041;28;20135;-77
2021/05/12 10:20:52;;;;;;;1.13;1.02;;;;;;;20.74;31.68;98327.00;5111124;28;20156;-77
2021/05/12 10:23:20;;;;;;;0.90;0.90;;;;;;;20.84;30.80;98333.78;5111380;28;20035;-77
2021/05/12 10:25:46;;;;;;;3.03;1.17;;;;;;;20.89;30.68;98331.53;5111474;28;20024;-76
2021/05/12 10:28:12;;;;;;;1.17;1.08;;;;;;;20.93;31.02;98337.00;5110592;28;20063;-77
2021/05/12 10:30:38;;;;;;;1.20;0.98;;;;;;;20.97;30.85;98335.16;5111492;28;20050;-76
2021/05/12 10:33:08;;;;;;;2.80;1.10;;;;;;;21.03;30.82;98331.00;5110426;28;20119;-76
2021/05/12 10:35:40;;;;;;;1.15;0.80;;;;;;;21.06;30.64;98337.63;5109620;28;20111;-76
2021/05/12 10:38:07;;;;;;;1.42;1.25;;;;;;;21.08;30.75;98332.59;5110579;28;20382;-77
2021/05/12 10:40:38;;;;;;;0.80;0.80;;;;;;;21.13;30.13;98326.06;5111207;28;20050;-76
2021/05/12 10:45:42;;;;;;;0.80;0.80;;;;;;;21.23;29.87;98314.59;5110928;28;20114;-76
2021/05/12 10:48:08;;;;;;;2.67;1.52;;;;;;;21.27;30.66;98304.53;5110732;28;20391;-76
2021/05/12 10:50:47;;;;;;;2.38;0.90;;;;;;;21.31;30.75;98320.91;5109788;28;20032;-76
2021/05/12 10:53:21;;;;;;;0.70;0.70;;;;;;;21.30;31.08;98311.19;5111145;28;20028;-77
2021/05/12 10:55:59;;;;;;;0.68;0.68;;;;;;;21.34;30.56;98317.47;5111096;28;20026;-76
2021/05/12 10:58:30;;;;;;;3.65;0.90;;;;;;;21.35;30.57;98291.81;5113126;28;20023;-76
2021/05/12 11:01:03;;;;;;;1.17;0.90;;;;;;;21.40;30.31;98295.03;5114685;28;20024;-76
2021/05/12 11:03:51;;;;;;;0.82;0.82;;;;;;;21.46;30.51;98290.06;5113561;28;20027;-77
2021/05/12 11:06:43;;;;;;;3.22;1.05;;;;;;;21.50;30.60;98299.03;5114091;28;20085;-77
2021/05/12 11:09:14;;;;;;;1.35;0.73;;;;;;;21.55;29.49;98298.72;5113954;28;20447;-78
2021/05/12 11:11:51;;;;;;;0.75;0.75;;;;;;;21.65;29.93;98291.13;5114471;28;20196;-75
2021/05/12 11:14:27;;;;;;;1.08;0.98;;;;;;;21.77;30.34;98293.59;5112924;28;20070;-75
2021/05/12 11:17:11;;;;;;;1.20;0.95;;;;;;;21.83;30.02;98297.56;5114363;28;20024;-76
2021/05/12 11:19:40;;;;;;;1.52;0.90;;;;;;;21.85;30.02;98289.81;5114358;28;20023;-77
2021/05/12 11:22:24;;;;;;;1.45;0.82;;;;;;;21.91;29.90;98295.72;5113828;28;20555;-77
2021/05/12 11:24:52;;;;;;;0.90;0.77;;;;;;;21.94;30.28;98286.03;5112990;28;20414;-77
2021/05/12 11:27:46;;;;;;;;;;;;;;;21.95;30.05;98285.66;5114740;28;20035;-77
2021/05/12 11:32:33;;;;;;;0.60;0.60;;;;;;;21.91;29.73;98282.13;5113932;28;20043;-77
2021/05/12 11:34:59;;;;;;;0.80;0.80;;;;;;;21.89;30.60;98277.03;5114296;28;20382;-77
2021/05/12 11:37:26;;;;;;;2.33;0.70;;;;;;;21.91;30.42;98280.16;5113345;28;20026;-77
2021/05/12 11:39:55;;;;;;;3.67;1.37;;;;;;;21.89;30.78;98276.25;5113862;28;20118;-77
2021/05/12 11:42:29;;;;;;;1.67;0.80;;;;;;;21.85;30.93;98280.84;5113712;27;20107;-77
2021/05/12 11:45:07;;;;;;;1.08;0.98;;;;;;;21.83;30.56;98273.06;5113733;28;20022;-77
2021/05/12 11:47:34;;;;;;;1.60;1.50;;;;;;;21.88;30.56;98271.97;5113875;28;20387;-79
2021/05/12 11:50:00;;;;;;;1.00;1.00;;;;;;;21.92;30.34;98267.34;5112753;28;20629;-76